Flight Track Log - Related Links

Times and Time Zones

All times are in EDT time to prevent confusion due to time zone crossing. See the TRS587 flight status page for this flight to view local times or setup timezone preferences in your user account.


Time Position Orientation Groundspeed Altitude Reporting Facility
EDT Latitude Longitude Course Direction KTS MPH feet Rate Location/Type
Sat 10:37:35 AM 28.4000 -81.3000 233° Southwest 161 185 1,000  Level Orlando TRACON
Sat 10:39:05 AM 28.3667 -81.3500 233° Southwest 200 230 3,800 1,880 Climbing Orlando TRACON
Sat 10:40:05 AM 28.3667 -81.4333 270° West 236 272 5,700 2,154 Climbing Orlando TRACON
Sat 10:41:41 AM 28.3725 -81.5503 273° West 252 290 9,400 2,115 Climbing Jacksonville Center
Sat 10:42:41 AM 28.3858 -81.6278 281° West 252 290 11,200 1,600 Climbing Jacksonville Center
Sat 10:43:41 AM 28.4158 -81.7147 291° West 264 304 12,600 1,900 Climbing Jacksonville Center
Sat 10:44:41 AM 28.4500 -81.8089 292° West 301 346 15,000 2,450 Climbing Jacksonville Center
Sat 10:45:41 AM 28.4842 -81.9031 292° West 318 366 17,500 2,250 Climbing Jacksonville Center
Sat 10:46:41 AM 28.5183 -82.0019 291° West 330 380 19,500 2,050 Climbing Jacksonville Center
Sat 10:47:41 AM 28.5814 -82.0842 311° West 335 386 21,600 2,050 Climbing Jacksonville Center
Sat 10:48:41 AM 28.6569 -82.1544 321° Northwest 341 392 23,600 1,900 Climbing Jacksonville Center
Sat 10:49:41 AM 28.7347 -82.2297 320° Northwest 352 405 25,400 1,500 Climbing Jacksonville Center
Sat 10:50:41 AM 28.8164 -82.3050 321° Northwest 368 423 26,600 1,000 Climbing Jacksonville Center
Sat 10:51:41 AM 28.9086 -82.3708 328° Northwest 380 437 27,400 800 Climbing Jacksonville Center
Sat 10:52:41 AM 29.0111 -82.4319 332° Northwest 398 458 28,200 1,050 Climbing Jacksonville Center
Sat 10:53:41 AM 29.1178 -82.4956 332° Northwest 415 478 29,500 1,250 Climbing Jacksonville Center
Sat 10:54:41 AM 29.2264 -82.5594 333° Northwest 426 490 30,700 1,050 Climbing Jacksonville Center
Sat 10:55:41 AM 29.3350 -82.6233 333° Northwest 431 496 31,600 650 Climbing Jacksonville Center
Sat 10:56:41 AM 29.4439 -82.6875 333° Northwest 436 502 32,000 200 Climbing Jacksonville Center
Sat 10:57:41 AM 29.5567 -82.7564 332° Northwest 441 507 32,000  Level Jacksonville Center
Sat 10:58:41 AM 29.6631 -82.8208 332° Northwest 433 498 32,000  Level Jacksonville Center
Sat 10:59:41 AM 29.7697 -82.8853 332° Northwest 433 498 32,000  Level Jacksonville Center
Sat 11:00:41 AM 29.8781 -82.9500 333° Northwest 438 504 32,000  Level Jacksonville Center
Sat 11:01:41 AM 29.9889 -83.0172 332° Northwest 438 504 32,000  Level Jacksonville Center
Sat 11:02:41 AM 30.0847 -83.0725 333° Northwest 431 496 32,000  Level Jacksonville Center
Sat 11:03:41 AM 30.1933 -83.1378 333° Northwest 431 496 32,000  Level Jacksonville Center
Sat 11:04:41 AM 30.3017 -83.2031 333° Northwest 436 502 32,000  Level Jacksonville Center
Sat 11:05:41 AM 30.4100 -83.2683 333° Northwest 436 502 32,000  Level Jacksonville Center
Sat 11:06:41 AM 30.5164 -83.3339 332° Northwest 436 502 32,000  Level Jacksonville Center
Sat 11:07:41 AM 30.6247 -83.3994 332° Northwest 436 502 32,000  Level Jacksonville Center
Sat 11:08:41 AM 30.7350 -83.4678 332° Northwest 436 502 32,000  Level Jacksonville Center
Sat 11:09:41 AM 30.8494 -83.5386 332° Northwest 431 496 32,000  Level Jacksonville Center
Sat 11:10:41 AM 30.9597 -83.6072 332° Northwest 431 496 32,000  Level Jacksonville Center
Sat 11:11:41 AM 31.0658 -83.6758 331° Northwest 436 502 32,000  Level Jacksonville Center
Sat 11:12:41 AM 31.1742 -83.7425 332° Northwest 436 502 32,000  Level Jacksonville Center
Sat 11:14:33 AM 31.3728 -83.8661 332° Northwest 451 519 32,000  Level Atlanta Center
Sat 11:15:33 AM 31.4794 -83.9367 331° Northwest 446 513 32,000  Level Atlanta Center
Sat 11:16:33 AM 31.5942 -83.9803 342° North 435 501 32,000  Level Atlanta Center
Sat 11:17:33 AM 31.7153 -84.0047 350° North 435 501 32,000  Level Atlanta Center
Sat 11:18:33 AM 31.8342 -84.0292 350° North 435 501 32,000  Level Atlanta Center
Sat 11:19:33 AM 31.9553 -84.0558 349° North 435 501 32,000  Level Atlanta Center
Sat 11:20:33 AM 32.0742 -84.0831 349° North 430 495 32,000  Level Atlanta Center
Sat 11:21:33 AM 32.1953 -84.1100 349° North 430 495 32,000  Level Atlanta Center
Sat 11:22:33 AM 32.3142 -84.1372 349° North 430 495 32,000  Level Atlanta Center
Sat 11:23:33 AM 32.4353 -84.1644 349° North 430 495 32,000  Level Atlanta Center
Sat 11:24:33 AM 32.5542 -84.1917 349° North 430 495 32,000  Level Atlanta Center
Sat 11:25:33 AM 32.6586 -84.2139 350° North 430 495 32,000  Level Atlanta Center
Sat 11:26:33 AM 32.7817 -84.2439 348° North 430 495 32,000  Level Atlanta Center
Sat 11:27:33 AM 32.9111 -84.2739 349° North 430 495 32,000  Level Atlanta Center
Sat 11:28:33 AM 33.0322 -84.3014 349° North 430 495 32,000  Level Atlanta Center
Sat 11:29:33 AM 33.1511 -84.3267 350° North 435 501 32,000  Level Atlanta Center
Sat 11:30:33 AM 33.2742 -84.3569 348° North 430 495 32,000  Level Atlanta Center
Sat 11:31:33 AM 33.3908 -84.3847 349° North 430 495 32,000  Level Atlanta Center
Sat 11:32:33 AM 33.5119 -84.4100 350° North 435 501 32,000  Level Atlanta Center
Sat 11:33:33 AM 33.6328 -84.4406 348° North 435 501 32,000  Level Atlanta Center
Sat 11:34:33 AM 33.7539 -84.4686 349° North 435 501 32,000  Level Atlanta Center
Sat 11:35:33 AM 33.8769 -84.4992 348° North 441 507 32,000  Level Atlanta Center
Sat 11:36:33 AM 33.9686 -84.5222 348° North 436 502 32,000  Level Atlanta Center
Sat 11:37:33 AM 34.1042 -84.5506 350° North 436 502 32,000  Level Atlanta Center
Sat 11:38:33 AM 34.2439 -84.5842 349° North 449 517 32,000  Level Atlanta Center
Sat 11:39:33 AM 34.3606 -84.6125 349° North 443 510 32,000  Level Atlanta Center
Sat 11:40:33 AM 34.4772 -84.6436 348° North 433 498 32,000  Level Atlanta Center
Sat 11:41:33 AM 34.5983 -84.6697 350° North 428 493 32,000  Level Atlanta Center
Sat 11:42:33 AM 34.6983 -84.6981 347° North 419 482 32,000  Level Atlanta Center
Sat 11:43:33 AM 34.8150 -84.7294 348° North 414 476 32,000  Level Atlanta Center
Sat 11:44:33 AM 34.9339 -84.7583 349° North 414 476 32,000  Level Atlanta Center
Sat 11:45:33 AM 35.0525 -84.7872 349° North 424 488 32,000  Level Atlanta Center
Sat 11:46:33 AM 35.1714 -84.8164 349° North 429 494 32,000  Level Atlanta Center
Sat 11:47:33 AM 35.2858 -84.8453 348° North 429 494 32,000  Level Atlanta Center
Sat 11:48:33 AM 35.4047 -84.8744 349° North 429 494 32,000  Level Atlanta Center
Sat 11:49:33 AM 35.5192 -84.9036 348° North 429 494 32,000  Level Atlanta Center
Sat 11:50:33 AM 35.6358 -84.9331 348° North 424 488 32,000  Level Atlanta Center
Sat 11:51:33 AM 35.7503 -84.9650 347° North 424 488 32,000  Level Atlanta Center
Sat 11:52:33 AM 35.8689 -84.9919 350° North 419 482 32,000  Level Atlanta Center
Sat 11:53:26 AM 35.9753 -85.0197 348° North 438 504 32,000  Level Indianapolis Center
Sat 11:54:27 AM 36.0928 -85.0481 349° North 431 496 32,000  Level Indianapolis Center
Sat 11:55:29 AM 36.2097 -85.0783 348° North 427 491 32,000  Level Indianapolis Center
Sat 11:56:30 AM 36.3236 -85.1075 348° North 419 482 32,000  Level Indianapolis Center
Sat 11:57:31 AM 36.4611 -85.1425 348° North 420 483 32,000  Level Indianapolis Center
Sat 11:58:32 AM 36.5725 -85.1722 348° North 412 474 32,000  Level Indianapolis Center
Sat 11:59:34 AM 36.6883 -85.2019 348° North 422 486 32,000  Level Indianapolis Center
Sat 12:00:35 PM 36.8014 -85.2319 348° North 417 480 32,000  Level Indianapolis Center
Sat 12:01:36 PM 36.9153 -85.2561 350° North 415 478 32,000  Level Indianapolis Center
Sat 12:02:38 PM 37.0319 -85.2800 351° North 423 487 32,000  Level Indianapolis Center
Sat 12:03:39 PM 37.1464 -85.3047 350° North 415 478 32,000  Level Indianapolis Center
Sat 12:04:40 PM 37.2628 -85.3294 350° North 418 481 32,000  Level Indianapolis Center
Sat 12:05:41 PM 37.3764 -85.3536 350° North 413 475 32,000  Level Indianapolis Center
Sat 12:06:43 PM 37.4922 -85.3789 350° North 419 482 32,000  Level Indianapolis Center
Sat 12:07:44 PM 37.6142 -85.4467 336° Northwest 407 468 32,000  Level Indianapolis Center
Sat 12:08:45 PM 37.7228 -85.5025 338° Northwest 415 478 32,000  Level Indianapolis Center
Sat 12:09:46 PM 37.8189 -85.5508 338° Northwest 418 481 32,000  Level Indianapolis Center
Sat 12:10:48 PM 37.9264 -85.6086 337° Northwest 419 482 32,000  Level Indianapolis Center
Sat 12:11:49 PM 38.0336 -85.6667 337° Northwest 419 482 32,000  Level Indianapolis Center
Sat 12:12:50 PM 38.1414 -85.7247 337° Northwest 420 483 32,000  Level Indianapolis Center
Sat 12:13:51 PM 38.2708 -85.7942 337° Northwest 420 483 32,000  Level Indianapolis Center
Sat 12:14:52 PM 38.3794 -85.8533 337° Northwest 422 486 32,000  Level Indianapolis Center
Sat 12:15:54 PM 38.4892 -85.9122 337° Northwest 427 491 32,000  Level Indianapolis Center
Sat 12:16:55 PM 38.5986 -85.9714 337° Northwest 427 491 32,000  Level Indianapolis Center
Sat 12:17:56 PM 38.7078 -86.0300 337° Northwest 426 490 32,000  Level Indianapolis Center
Sat 12:18:57 PM 38.8161 -86.0900 337° Northwest 425 489 32,000  Level Indianapolis Center
Sat 12:19:58 PM 38.9228 -86.1489 337° Northwest 423 487 32,000  Level Indianapolis Center
Sat 12:20:59 PM 39.0314 -86.2081 337° Northwest 423 487 32,000 -146 Level Indianapolis Center
Sat 12:22:01 PM 39.1392 -86.2686 336° Northwest 423 487 31,700 -488 Descending Indianapolis Center
Sat 12:23:02 PM 39.2469 -86.3278 337° Northwest 421 484 31,000 -689 Descending Indianapolis Center
Sat 12:24:03 PM 39.3542 -86.3875 337° Northwest 419 482 30,300 -934 Descending Indianapolis Center
Sat 12:25:04 PM 39.4814 -86.4586 337° Northwest 415 478 29,100 -1,328 Descending Indianapolis Center
Sat 12:26:05 PM 39.5883 -86.5186 337° Northwest 416 479 27,600 -1,574 Descending Indianapolis Center
Sat 12:27:06 PM 39.6914 -86.5772 336° Northwest 405 466 25,900 -1,623 Descending Indianapolis Center
Sat 12:28:07 PM 39.7928 -86.6333 337° Northwest 394 453 24,300 -1,561 Descending Indianapolis Center
Sat 12:29:09 PM 39.8933 -86.6903 337° Northwest 391 450 22,700 -1,122 Descending Indianapolis Center
Sat 12:30:10 PM 39.9897 -86.7447 337° Northwest 379 436 22,000 -344 Descending Indianapolis Center
Sat 12:31:11 PM 40.0833 -86.7978 337° Northwest 369 425 22,000  Level Indianapolis Center
Sat 12:32:12 PM 40.1775 -86.8508 337° Northwest 369 425 22,000  Level Indianapolis Center
Sat 12:33:13 PM 40.2708 -86.9050 336° Northwest 368 423 22,000  Level Indianapolis Center
Sat 12:34:14 PM 40.3611 -86.9572 336° Northwest 353 406 22,000  Level Indianapolis Center
Sat 12:35:15 PM 40.4375 -86.9972 338° Northwest 310 357 22,000 -1,131 Level Indianapolis Center
Sat 12:36:16 PM 40.5125 -87.0408 336° Northwest 295 339 19,700 -3,073 Descending Indianapolis Center
Sat 12:37:18 PM 40.5967 -87.0828 339° North 310 357 15,700 -4,146 Descending Indianapolis Center
Sat 12:38:19 PM 40.6994 -87.1436 336° Northwest 332 382 11,200 -2,311 Descending Indianapolis Center
Sat 12:39:20 PM 40.7961 -87.2028 335° Northwest 363 418 11,000 -590 Descending Indianapolis Center
Sat 12:40:21 PM 40.8944 -87.2514 340° North 374 430 10,000 -492 Descending Indianapolis Center
Sat 12:41:22 PM 40.9903 -87.3042 337° Northwest 374 430 10,000 -49 Level Indianapolis Center
Sat 12:42:23 PM 41.0739 -87.3506 337° Northwest 343 395 9,900 -537 Descending Indianapolis Center
Sat 12:43:25 PM 41.1469 -87.3928 336° Northwest 305 351 8,900 -930 Descending Indianapolis Center
Sat 12:44:45 PM 41.2500 -87.4483 338° Northwest 278 320 7,700 -887 Descending Chicago Center
Sat 12:45:47 PM 41.3211 -87.4886 337° Northwest 279 321 6,800 -823 Descending Chicago Center
Sat 12:46:49 PM 41.3919 -87.5283 337° Northwest 280 322 6,000 -435 Descending Chicago Center
Sat 12:47:51 PM 41.4622 -87.5656 338° Northwest 277 319 5,900 -339 Descending Chicago Center
Sat 12:48:53 PM 41.5392 -87.5669 359° North 276 318 5,300 -774 Descending Chicago Center
Sat 12:49:55 PM 41.6278 -87.5689 359° North 270 311 4,300 -1,016 Descending Chicago Center
Sat 12:50:57 PM 41.6886 -87.6161 330° Northwest 265 305 3,200 -1,016 Descending Chicago Center
Sat 12:51:59 PM 41.7289 -87.6728 314° West 237 273 2,200 -871 Descending Chicago Center
Sat 12:53:01 PM 41.7547 -87.7097 313° West 178 205 1,400 -435 Descending Chicago Center
Sat 12:54:03 PM 41.7783 -87.7433 313° West 143 165 1,300 823 Descending Chicago Center
Sat 12:55:05 PM 41.8294 -87.7533 352° North 181 208 3,100 968 Climbing Chicago Center
Sat 12:56:07 PM 41.8222 -87.6675 96° East 222 255 3,300 484 Climbing Chicago Center
Sat 12:57:09 PM 41.8594 -87.5939 56° Northeast 241 277 4,100 387 Climbing Chicago Center
Sat 12:58:11 PM 41.9281 -87.5911 North 259 298 4,100 629 Level Chicago Center
Sat 12:59:13 PM 41.9892 -87.6494 325° Northwest 268 308 5,400 1,452 Climbing Chicago Center
Sat 01:00:15 PM 42.0589 -87.7300 319° Northwest 278 320 7,100 1,645 Climbing Chicago Center

Login

Don't have an account? Register now (free) for customized features, flight alerts, and more!